createdAt,value
2022-10-24T00:01:33.246Z,12.97
2022-10-24T00:04:00.892Z,12.77
2022-10-24T00:06:30.913Z,13.03
2022-10-24T00:08:58.550Z,12.10
2022-10-24T00:11:28.114Z,11.60
2022-10-24T00:13:57.336Z,12.30
2022-10-24T00:16:26.123Z,11.03
2022-10-24T00:18:53.804Z,11.33
2022-10-24T00:21:22.681Z,11.63
2022-10-24T00:23:53.224Z,10.87
2022-10-24T00:26:23.040Z,10.90
2022-10-24T00:28:50.687Z,11.63
2022-10-24T00:31:19.719Z,11.93
2022-10-24T00:33:47.553Z,11.37
2022-10-24T00:36:18.855Z,12.20
2022-10-24T00:38:47.323Z,11.97
2022-10-24T00:41:34.918Z,12.60
2022-10-24T00:44:22.454Z,13.40
2022-10-24T00:46:57.926Z,13.23
2022-10-24T00:49:30.632Z,13.57
2022-10-24T00:52:04.545Z,12.87
2022-10-24T00:54:32.406Z,13.13
2022-10-24T00:57:17.308Z,13.67
2022-10-24T00:59:47.721Z,12.27
2022-10-24T01:02:15.804Z,12.20
2022-10-24T01:04:44.674Z,11.90
2022-10-24T01:07:29.831Z,10.50
2022-10-24T01:10:15.912Z,11.17
2022-10-24T01:12:48.720Z,11.37
2022-10-24T01:15:28.274Z,11.33
2022-10-24T01:18:31.186Z,12.27
2022-10-24T01:21:07.668Z,11.73
2022-10-24T01:24:03.332Z,12.13
2022-10-24T01:26:49.345Z,11.47
2022-10-24T01:29:36.028Z,12.83
2022-10-24T01:32:26.912Z,12.17
2022-10-24T01:35:04.009Z,10.80
2022-10-24T01:37:51.671Z,11.97
2022-10-24T01:40:29.398Z,17.87
2022-10-24T01:43:01.185Z,11.07
2022-10-24T01:45:35.794Z,9.73
2022-10-24T01:48:06.973Z,10.30
2022-10-24T01:50:36.521Z,9.37
2022-10-24T01:53:04.959Z,9.77
2022-10-24T01:55:33.390Z,10.23
2022-10-24T01:58:00.960Z,10.53
2022-10-24T02:00:28.688Z,11.20
2022-10-24T02:03:01.749Z,12.20
2022-10-24T02:05:37.419Z,11.57
2022-10-24T02:08:08.643Z,12.00
2022-10-24T02:10:42.627Z,12.53
2022-10-24T02:13:21.968Z,10.47
2022-10-24T02:15:53.668Z,11.30
2022-10-24T02:18:21.654Z,10.50
2022-10-24T02:21:19.913Z,10.73
2022-10-24T02:24:19.907Z,11.13
2022-10-24T02:27:12.055Z,10.27
2022-10-24T02:30:01.228Z,10.37
2022-10-24T02:32:36.333Z,10.67
2022-10-24T02:35:06.370Z,12.90
2022-10-24T02:37:37.501Z,10.03
2022-10-24T02:40:08.336Z,10.67
2022-10-24T02:42:37.723Z,10.73
2022-10-24T02:45:07.980Z,10.10
2022-10-24T02:47:36.812Z,10.83
2022-10-24T02:50:04.770Z,11.20
2022-10-24T02:52:33.376Z,11.87
2022-10-24T02:55:00.975Z,12.70
2022-10-24T02:57:28.693Z,11.27
2022-10-24T02:59:59.270Z,10.87
2022-10-24T03:02:26.915Z,14.80
2022-10-24T03:04:54.517Z,10.07
2022-10-24T03:07:22.327Z,10.87
2022-10-24T03:09:49.871Z,11.47
2022-10-24T03:12:17.513Z,10.80
2022-10-24T03:14:45.359Z,10.57
2022-10-24T03:17:13.567Z,10.60
2022-10-24T03:19:41.214Z,11.87
2022-10-24T03:22:08.772Z,11.83
2022-10-24T03:24:44.526Z,11.37
2022-10-24T03:27:23.244Z,11.97
2022-10-24T03:29:51.070Z,10.13
2022-10-24T03:32:18.663Z,10.17
2022-10-24T03:34:46.330Z,9.60
2022-10-24T03:37:14.080Z,9.53
2022-10-24T03:39:41.919Z,10.57
2022-10-24T03:42:09.633Z,9.60
2022-10-24T03:44:38.380Z,8.40
2022-10-24T03:47:06.302Z,8.00
2022-10-24T03:49:33.933Z,7.33
2022-10-24T03:52:01.547Z,7.30
2022-10-24T03:54:29.109Z,9.00
2022-10-24T03:56:56.919Z,6.77
2022-10-24T03:59:27.316Z,6.97
2022-10-24T04:01:54.910Z,7.47
2022-10-24T04:04:22.487Z,7.03
2022-10-24T04:06:51.512Z,6.53
2022-10-24T04:09:19.201Z,6.93
2022-10-24T04:11:47.770Z,8.33
2022-10-24T04:14:15.406Z,7.23
2022-10-24T04:16:43.060Z,8.43
2022-10-24T04:19:11.014Z,7.50
2022-10-24T04:21:38.710Z,7.43
2022-10-24T04:24:06.637Z,7.27
2022-10-24T04:26:34.808Z,7.87
2022-10-24T04:29:02.387Z,7.83
2022-10-24T04:31:29.930Z,8.17
2022-10-24T04:33:57.499Z,8.73
2022-10-24T04:36:25.124Z,8.40
2022-10-24T04:38:52.797Z,8.80
2022-10-24T04:41:20.411Z,9.47
2022-10-24T04:43:47.970Z,9.43
2022-10-24T04:46:15.583Z,9.83
2022-10-24T04:48:45.212Z,9.70
2022-10-24T04:51:14.639Z,9.57
2022-10-24T04:53:43.834Z,9.50
2022-10-24T04:56:11.372Z,10.50
2022-10-24T04:58:39.057Z,9.63
2022-10-24T05:01:06.768Z,9.77
2022-10-24T05:03:34.526Z,13.53
2022-10-24T05:06:02.128Z,10.67
2022-10-24T05:08:29.707Z,10.17
2022-10-24T05:10:57.281Z,10.87
2022-10-24T05:13:25.289Z,9.57
2022-10-24T05:15:55.729Z,10.50
2022-10-24T05:18:23.332Z,10.43
2022-10-24T05:20:50.841Z,10.07
2022-10-24T05:23:18.532Z,13.47
2022-10-24T05:25:46.112Z,12.70
2022-10-24T05:28:14.139Z,10.20
2022-10-24T05:30:43.946Z,9.97
2022-10-24T05:33:12.451Z,11.63
2022-10-24T05:35:41.615Z,10.47
2022-10-24T05:38:09.388Z,10.27
2022-10-24T05:40:36.985Z,10.37
2022-10-24T05:43:07.382Z,9.90
2022-10-24T05:45:35.261Z,10.43
2022-10-24T05:48:02.861Z,10.50
2022-10-24T05:50:31.078Z,9.50
2022-10-24T05:52:58.640Z,9.27
2022-10-24T05:55:26.265Z,10.67
2022-10-24T05:57:53.876Z,8.97
2022-10-24T06:00:21.427Z,9.73
2022-10-24T06:02:49.069Z,9.40
2022-10-24T06:05:16.749Z,8.27
2022-10-24T06:07:45.231Z,9.73
2022-10-24T06:10:14.009Z,7.97
2022-10-24T06:12:41.784Z,8.77
2022-10-24T06:15:09.995Z,10.33
2022-10-24T06:17:40.378Z,10.33
2022-10-24T06:20:08.680Z,9.57
2022-10-24T06:22:36.260Z,8.93
2022-10-24T06:25:04.543Z,9.37
2022-10-24T06:27:32.082Z,9.03
2022-10-24T06:29:59.614Z,7.37
2022-10-24T06:32:27.190Z,6.73
2022-10-24T06:34:57.325Z,7.00
2022-10-24T06:37:24.978Z,7.90
2022-10-24T06:39:55.558Z,7.10
2022-10-24T06:42:23.258Z,7.90
2022-10-24T06:44:51.319Z,8.43
2022-10-24T06:47:18.965Z,8.60
2022-10-24T06:49:46.562Z,9.43
2022-10-24T06:52:14.154Z,9.47
2022-10-24T06:54:43.593Z,9.77
2022-10-24T06:57:11.219Z,8.90
2022-10-24T06:59:38.788Z,8.90
2022-10-24T07:02:06.752Z,8.73
2022-10-24T07:04:34.357Z,8.70
2022-10-24T07:07:01.996Z,7.90
2022-10-24T07:09:29.778Z,8.27
2022-10-24T07:12:00.919Z,8.37
2022-10-24T07:14:28.549Z,9.83
2022-10-24T07:16:56.178Z,8.70
2022-10-24T07:19:23.787Z,7.90
2022-10-24T07:21:51.385Z,8.70
2022-10-24T07:24:21.274Z,8.23
2022-10-24T07:26:48.837Z,7.30
2022-10-24T07:29:16.390Z,7.83
2022-10-24T07:31:47.743Z,7.60
2022-10-24T07:34:15.834Z,6.57
2022-10-24T07:36:44.092Z,7.17
2022-10-24T07:39:13.344Z,7.20
2022-10-24T07:41:41.937Z,8.07
2022-10-24T07:44:10.808Z,7.07
2022-10-24T07:46:40.611Z,8.13
2022-10-24T07:49:09.118Z,7.20
2022-10-24T07:51:37.155Z,7.07
2022-10-24T07:54:04.908Z,8.20
2022-10-24T07:56:35.811Z,7.80
2022-10-24T07:59:09.052Z,7.03
2022-10-24T08:01:37.333Z,8.00
2022-10-24T08:04:07.623Z,7.07
2022-10-24T08:06:35.177Z,7.03
2022-10-24T08:09:14.302Z,7.47
2022-10-24T08:11:41.970Z,8.83
2022-10-24T08:14:18.274Z,8.47
2022-10-24T08:16:45.880Z,7.80
2022-10-24T08:19:15.037Z,8.07
2022-10-24T08:21:42.704Z,8.50
2022-10-24T08:24:10.359Z,8.90
2022-10-24T08:26:40.440Z,9.33
2022-10-24T08:29:11.944Z,8.53
2022-10-24T08:31:39.509Z,8.23
2022-10-24T08:34:07.305Z,8.07
2022-10-24T08:36:35.883Z,7.83
2022-10-24T08:39:04.613Z,7.57
2022-10-24T08:41:32.264Z,7.53
2022-10-24T08:44:02.652Z,7.30
2022-10-24T08:46:50.239Z,7.27
2022-10-24T08:49:45.239Z,6.80
2022-10-24T08:52:37.630Z,6.03
2022-10-24T08:55:25.173Z,6.17
2022-10-24T08:58:00.881Z,5.67
2022-10-24T09:00:36.421Z,5.67
2022-10-24T09:03:54.523Z,5.77
2022-10-24T09:06:24.248Z,5.95
2022-10-24T09:09:05.800Z,4.63
2022-10-24T09:11:55.884Z,5.55
2022-10-24T09:14:31.590Z,5.10
2022-10-24T09:17:11.257Z,5.38
2022-10-24T09:19:39.347Z,5.82
2022-10-24T09:22:11.064Z,5.90
2022-10-24T09:24:47.338Z,7.03
2022-10-24T09:27:24.961Z,5.57
2022-10-24T09:29:52.750Z,6.10
2022-10-24T09:32:26.982Z,6.43
2022-10-24T09:34:57.907Z,6.63
2022-10-24T09:37:43.907Z,6.77
2022-10-24T09:40:27.473Z,7.10
2022-10-24T09:43:16.736Z,9.87
2022-10-24T09:45:51.565Z,8.47
2022-10-24T09:48:30.405Z,7.63
2022-10-24T09:50:59.921Z,7.73
2022-10-24T09:53:34.144Z,7.10
2022-10-24T09:56:15.105Z,7.40
2022-10-24T09:58:43.104Z,6.78
2022-10-24T10:01:16.580Z,6.50
2022-10-24T10:03:59.556Z,6.85
2022-10-24T10:06:27.697Z,6.40
2022-10-24T10:08:57.247Z,6.35
2022-10-24T10:11:31.611Z,5.97
2022-10-24T10:14:02.405Z,6.20
2022-10-24T10:16:39.516Z,6.18
2022-10-24T10:19:16.426Z,5.97
2022-10-24T10:22:00.467Z,5.90
2022-10-24T10:24:39.938Z,5.28
2022-10-24T10:27:35.326Z,4.40
2022-10-24T10:30:12.162Z,3.58
2022-10-24T10:33:06.648Z,3.53
2022-10-24T10:35:40.386Z,2.63
2022-10-24T10:38:45.279Z,2.97
2022-10-24T10:41:15.996Z,2.72
2022-10-24T10:43:58.147Z,2.70
2022-10-24T10:46:37.764Z,2.20
2022-10-24T10:49:20.578Z,2.20
2022-10-24T10:51:52.131Z,1.77
2022-10-24T10:54:44.573Z,1.55
2022-10-24T10:57:17.434Z,1.50
2022-10-24T11:00:09.258Z,2.05
2022-10-24T11:03:01.358Z,1.52
2022-10-24T11:06:06.074Z,1.77
2022-10-24T11:09:11.352Z,2.08
2022-10-24T11:11:46.987Z,1.40
2022-10-24T11:14:26.355Z,1.50
2022-10-24T11:16:58.614Z,1.50
2022-10-24T11:19:53.166Z,1.50
2022-10-24T11:22:27.969Z,1.60
2022-10-24T11:25:24.451Z,1.27
2022-10-24T11:28:12.925Z,1.50
2022-10-24T11:31:01.019Z,1.45
2022-10-24T11:33:34.196Z,1.63
2022-10-24T11:36:27.661Z,1.60
2022-10-24T11:41:47.671Z,1.20
2022-10-24T11:44:29.382Z,1.60
2022-10-24T11:47:12.734Z,1.50
2022-10-24T11:49:45.472Z,1.48
2022-10-24T11:52:26.773Z,1.52
2022-10-24T11:55:04.099Z,1.60
2022-10-24T11:57:36.380Z,1.83
2022-10-24T12:00:04.658Z,1.40
2022-10-24T12:02:49.733Z,1.33
2022-10-24T12:05:49.956Z,1.80
2022-10-24T12:08:39.688Z,1.20
2022-10-24T12:11:33.133Z,1.45
2022-10-24T12:14:19.009Z,1.10
2022-10-24T12:16:49.651Z,1.48
2022-10-24T12:19:21.175Z,1.30
2022-10-24T12:21:53.564Z,1.60
2022-10-24T12:24:36.307Z,1.30
2022-10-24T12:27:07.010Z,1.40
2022-10-24T12:29:36.667Z,1.23
2022-10-24T12:32:41.566Z,1.08
2022-10-24T12:35:31.268Z,0.98
2022-10-24T12:38:00.728Z,1.20
2022-10-24T12:40:51.518Z,1.10
2022-10-24T12:43:37.967Z,1.35
2022-10-24T12:46:22.973Z,1.20
2022-10-24T12:48:56.956Z,1.10
2022-10-24T12:51:32.917Z,1.15
2022-10-24T12:54:11.914Z,1.23
2022-10-24T12:57:02.446Z,1.20
2022-10-24T12:59:32.129Z,1.50
2022-10-24T13:02:25.602Z,1.10
2022-10-24T13:04:58.865Z,1.25
2022-10-24T13:07:29.454Z,1.45
2022-10-24T13:10:24.696Z,1.63
2022-10-24T13:12:57.834Z,1.20
2022-10-24T13:15:39.685Z,1.40
2022-10-24T13:18:45.223Z,1.60
2022-10-24T13:21:18.752Z,1.02
2022-10-24T13:23:48.063Z,1.45
2022-10-24T13:26:39.208Z,1.35
2022-10-24T13:29:15.419Z,1.50
2022-10-24T13:31:45.662Z,1.33
2022-10-24T13:34:25.673Z,1.35
2022-10-24T13:37:24.124Z,1.05
2022-10-24T13:40:02.602Z,1.13
2022-10-24T13:42:41.000Z,1.27
2022-10-24T13:45:40.042Z,1.40
2022-10-24T13:48:19.918Z,1.33
2022-10-24T13:51:13.816Z,1.23
2022-10-24T13:53:52.488Z,1.30
2022-10-24T13:56:20.290Z,1.25
2022-10-24T13:58:47.944Z,1.27
2022-10-24T14:01:25.915Z,1.10
2022-10-24T14:03:55.177Z,1.30
2022-10-24T14:06:29.009Z,1.75
2022-10-24T14:09:10.262Z,1.63
2022-10-24T14:11:44.003Z,1.40
2022-10-24T14:14:36.112Z,1.20
2022-10-24T14:17:10.821Z,1.42
2022-10-24T14:19:49.681Z,1.58
2022-10-24T14:22:22.054Z,1.33
2022-10-24T14:24:51.884Z,1.42
2022-10-24T14:27:20.449Z,1.23
2022-10-24T14:29:54.519Z,1.13
2022-10-24T14:32:22.466Z,1.27
2022-10-24T14:34:50.664Z,1.20
2022-10-24T14:37:28.598Z,1.75
2022-10-24T14:39:59.691Z,1.00
2022-10-24T14:42:28.373Z,1.65
2022-10-24T14:44:58.413Z,1.10
2022-10-24T14:47:31.812Z,1.23
2022-10-24T14:49:59.734Z,1.27
2022-10-24T14:52:41.021Z,1.33
2022-10-24T14:55:21.701Z,1.55
2022-10-24T14:57:51.634Z,1.83
2022-10-24T15:00:22.678Z,1.23
2022-10-24T15:02:52.591Z,1.30
2022-10-24T15:05:20.316Z,1.15
2022-10-24T15:08:16.683Z,1.63
2022-10-24T15:10:42.821Z,1.23
2022-10-24T15:13:16.775Z,1.40
2022-10-24T15:15:44.406Z,1.50
2022-10-24T15:18:24.536Z,1.75
2022-10-24T15:21:07.260Z,1.25
2022-10-24T15:23:51.859Z,1.50
2022-10-24T15:26:39.193Z,1.70
2022-10-24T15:29:12.500Z,1.10
2022-10-24T15:31:43.137Z,1.58
2022-10-24T15:34:22.946Z,1.20
2022-10-24T15:36:52.758Z,1.30
2022-10-24T15:39:24.697Z,1.60
2022-10-24T15:41:53.158Z,1.67
2022-10-24T15:44:22.441Z,1.45
2022-10-24T15:46:50.176Z,1.40
2022-10-24T15:49:20.246Z,1.60
2022-10-24T15:51:50.455Z,1.42
2022-10-24T15:54:22.302Z,2.30
2022-10-24T15:56:50.354Z,1.27
2022-10-24T15:59:19.830Z,1.52
2022-10-24T16:02:00.197Z,1.60
2022-10-24T16:04:28.551Z,1.50
2022-10-24T16:06:57.427Z,1.33
2022-10-24T16:09:31.056Z,1.80
2022-10-24T16:12:01.602Z,1.63
2022-10-24T16:14:30.352Z,1.63
2022-10-24T16:16:58.899Z,1.45
2022-10-24T16:19:27.114Z,2.00
2022-10-24T16:21:58.351Z,1.52
2022-10-24T16:24:27.361Z,1.63
2022-10-24T16:26:55.083Z,1.98
2022-10-24T16:29:22.635Z,1.42
2022-10-24T16:31:50.803Z,1.92
2022-10-24T16:34:18.421Z,1.80
2022-10-24T16:36:46.033Z,1.70
2022-10-24T16:39:14.566Z,1.40
2022-10-24T16:41:46.154Z,1.50
2022-10-24T16:44:14.844Z,1.20
2022-10-24T16:46:42.495Z,1.60
2022-10-24T16:49:10.067Z,2.20
2022-10-24T16:51:41.706Z,1.75
2022-10-24T16:54:11.654Z,2.00
2022-10-24T16:56:39.208Z,1.77
2022-10-24T16:59:09.249Z,2.23
2022-10-24T17:01:39.468Z,1.30
2022-10-24T17:04:07.258Z,1.87
2022-10-24T17:06:35.119Z,2.00
2022-10-24T17:09:03.046Z,1.57
2022-10-24T17:11:44.781Z,1.97
2022-10-24T17:14:14.271Z,1.77
2022-10-24T17:16:42.935Z,2.40
2022-10-24T17:19:18.305Z,2.70
2022-10-24T17:21:50.685Z,1.60
2022-10-24T17:24:28.360Z,1.37
2022-10-24T17:26:56.112Z,1.93
2022-10-24T17:29:28.511Z,1.63
2022-10-24T17:31:57.201Z,1.83
2022-10-24T17:34:25.470Z,2.10
2022-10-24T17:37:18.280Z,2.83
2022-10-24T17:39:45.960Z,2.60
2022-10-24T17:42:13.736Z,3.03
2022-10-24T17:44:41.731Z,2.50
2022-10-24T17:47:13.147Z,3.00
2022-10-24T17:49:43.358Z,2.37
2022-10-24T17:52:22.332Z,2.77
2022-10-24T17:54:56.186Z,3.10
2022-10-24T17:57:26.091Z,2.50
2022-10-24T17:59:57.051Z,3.07
2022-10-24T18:02:27.159Z,3.57
2022-10-24T18:04:58.172Z,3.00
2022-10-24T18:07:28.699Z,2.77
2022-10-24T18:10:00.732Z,2.50
2022-10-24T18:12:30.198Z,2.90
2022-10-24T18:15:03.787Z,2.37
2022-10-24T18:17:31.978Z,3.03
2022-10-24T18:20:09.683Z,3.20
2022-10-24T18:22:43.270Z,2.70
2022-10-24T18:25:20.193Z,3.10
2022-10-24T18:27:59.064Z,2.47
2022-10-24T18:30:33.125Z,2.83
2022-10-24T18:33:07.698Z,2.70
2022-10-24T18:36:36.471Z,3.47
2022-10-24T18:39:13.889Z,2.57
2022-10-24T18:41:48.597Z,3.40
2022-10-24T18:44:23.115Z,3.00
2022-10-24T18:46:52.469Z,2.93
2022-10-24T18:49:22.822Z,3.30
2022-10-24T18:52:09.516Z,3.37
2022-10-24T18:54:45.006Z,3.50
2022-10-24T18:57:22.636Z,3.43
2022-10-24T18:59:51.065Z,3.83
2022-10-24T19:02:34.805Z,4.30
2022-10-24T19:05:23.423Z,4.07
2022-10-24T19:07:52.189Z,3.40
2022-10-24T19:10:25.871Z,3.50
2022-10-24T19:12:54.489Z,3.60
2022-10-24T19:15:23.281Z,3.37
2022-10-24T19:17:51.570Z,3.07
2022-10-24T19:20:21.924Z,2.90
2022-10-24T19:22:50.365Z,2.50
2022-10-24T19:25:18.225Z,2.40
2022-10-24T19:27:45.959Z,2.47
2022-10-24T19:30:13.858Z,2.67
2022-10-24T19:32:41.547Z,2.40
2022-10-24T19:35:09.367Z,2.87
2022-10-24T19:37:37.414Z,2.97
2022-10-24T19:40:05.789Z,2.17
2022-10-24T19:42:34.516Z,2.47
2022-10-24T19:45:02.521Z,2.73
2022-10-24T19:47:30.093Z,2.97
2022-10-24T19:49:57.779Z,2.27
2022-10-24T19:52:25.591Z,2.43
2022-10-24T19:54:53.249Z,2.33
2022-10-24T19:57:23.910Z,2.00
2022-10-24T19:59:51.468Z,2.70
2022-10-24T20:02:19.072Z,2.20
2022-10-24T20:04:49.228Z,2.50
2022-10-24T20:07:17.838Z,2.13
2022-10-24T20:09:45.572Z,1.83
2022-10-24T20:12:13.290Z,2.00
2022-10-24T20:14:40.871Z,2.17
2022-10-24T20:17:08.581Z,3.00
2022-10-24T20:19:38.491Z,2.77
2022-10-24T20:22:06.229Z,2.80
2022-10-24T20:24:34.351Z,2.73
2022-10-24T20:27:02.304Z,3.17
2022-10-24T20:29:32.781Z,2.43
2022-10-24T20:32:00.588Z,2.50
2022-10-24T20:34:28.151Z,2.70
2022-10-24T20:36:55.858Z,2.57
2022-10-24T20:39:23.459Z,2.37
2022-10-24T20:41:54.289Z,2.67
2022-10-24T20:44:22.156Z,2.63
2022-10-24T20:46:50.160Z,3.03
2022-10-24T20:49:20.029Z,2.97
2022-10-24T20:51:49.836Z,2.70
2022-10-24T20:54:18.363Z,2.40
2022-10-24T20:56:45.929Z,2.87
2022-10-24T20:59:13.818Z,2.40
2022-10-24T21:05:43.046Z,2.30
2022-10-24T21:08:16.094Z,2.47
2022-10-24T21:10:49.711Z,2.33
2022-10-24T21:25:34.405Z,2.33
2022-10-24T21:31:53.693Z,2.40
2022-10-24T21:35:38.803Z,1.97
2022-10-24T21:38:09.594Z,1.97
2022-10-24T21:40:37.429Z,2.20
2022-10-24T21:43:05.334Z,2.20
2022-10-24T21:45:33.119Z,2.33
2022-10-24T21:48:00.828Z,2.57
2022-10-24T21:50:28.592Z,2.00
2022-10-24T21:52:58.790Z,2.30
2022-10-24T21:55:26.556Z,2.10
2022-10-24T21:57:54.315Z,2.17
2022-10-24T22:00:22.004Z,1.90
2022-10-24T22:02:52.479Z,2.10
2022-10-24T22:05:23.249Z,1.80
2022-10-24T22:07:51.422Z,1.80
2022-10-24T22:10:22.452Z,2.33
2022-10-24T22:12:50.131Z,2.07
2022-10-24T22:15:18.001Z,2.30
2022-10-24T22:17:46.206Z,2.00
2022-10-24T22:20:14.145Z,2.07
2022-10-24T22:22:41.796Z,2.17
2022-10-24T22:25:09.679Z,2.83
2022-10-24T22:27:37.295Z,1.77
2022-10-24T22:30:05.594Z,2.10
2022-10-24T22:32:33.563Z,1.87
2022-10-24T22:35:01.469Z,1.63
2022-10-24T22:37:31.637Z,1.90
2022-10-24T22:39:59.698Z,1.70
2022-10-24T22:42:27.649Z,1.60
2022-10-24T22:44:56.406Z,2.23
2022-10-24T22:48:16.637Z,2.00
2022-10-24T22:50:55.216Z,1.73
2022-10-24T22:53:28.559Z,1.70
2022-10-24T22:56:10.779Z,1.50
2022-10-24T22:58:45.599Z,1.63
2022-10-24T23:01:24.192Z,1.67
2022-10-24T23:04:12.536Z,1.83
2022-10-24T23:06:51.645Z,1.87
2022-10-24T23:09:19.416Z,1.80
2022-10-24T23:11:47.403Z,1.80
2022-10-24T23:16:52.866Z,1.83
2022-10-24T23:19:23.794Z,1.73
2022-10-24T23:22:06.936Z,1.80
2022-10-24T23:24:35.395Z,1.50
2022-10-24T23:27:23.509Z,2.30
2022-10-24T23:29:51.539Z,1.60
2022-10-24T23:32:22.516Z,1.40
2022-10-24T23:34:51.785Z,1.70
2022-10-24T23:37:38.075Z,1.37
2022-10-24T23:40:17.594Z,1.43
2022-10-24T23:42:46.582Z,1.50
2022-10-24T23:45:31.854Z,1.13
2022-10-24T23:48:18.057Z,1.53
2022-10-24T23:50:49.059Z,1.77
2022-10-24T23:53:25.570Z,2.20
2022-10-24T23:55:54.774Z,1.57
2022-10-24T23:58:22.540Z,1.50
